createdAt,value
2023-01-13T00:00:06.755Z,99698.56
2023-01-13T00:02:37.809Z,99691.53
2023-01-13T00:05:04.335Z,99698.56
2023-01-13T00:07:30.650Z,99709.25
2023-01-13T00:09:56.933Z,99684.19
2023-01-13T00:12:23.198Z,99685.38
2023-01-13T00:14:49.465Z,99690.22
2023-01-13T00:17:15.772Z,99691.53
2023-01-13T00:19:42.079Z,99693.38
2023-01-13T00:22:08.419Z,99687.53
2023-01-13T00:24:34.733Z,99688.56
2023-01-13T00:27:00.998Z,99695.91
2023-01-13T00:29:27.381Z,99683.72
2023-01-13T00:31:53.729Z,99679.53
2023-01-13T00:34:20.024Z,99680.22
2023-01-13T00:36:46.292Z,99678.22
2023-01-13T00:39:12.688Z,99673.34
2023-01-13T00:41:57.557Z,99680.88
2023-01-13T00:44:23.939Z,99678.69
2023-01-13T00:46:50.289Z,99679.53
2023-01-13T00:49:16.619Z,99672.34
2023-01-13T00:51:42.914Z,99677.84
2023-01-13T00:54:09.183Z,99665.00
2023-01-13T00:56:40.189Z,99672.84
2023-01-13T00:59:08.164Z,99674.69
2023-01-13T01:01:34.648Z,99679.34
2023-01-13T01:04:00.988Z,99672.50
2023-01-13T01:06:27.614Z,99686.88
2023-01-13T01:08:55.850Z,99682.53
2023-01-13T01:11:26.136Z,99679.84
2023-01-13T01:13:54.815Z,99692.22
2023-01-13T01:16:23.191Z,99690.22
2023-01-13T01:18:51.012Z,99686.88
2023-01-13T01:21:18.973Z,99680.53
2023-01-13T01:23:45.879Z,99689.56
2023-01-13T01:26:14.994Z,99686.22
2023-01-13T01:28:41.781Z,99686.38
2023-01-13T01:31:09.468Z,99687.38
2023-01-13T01:33:35.942Z,99688.72
2023-01-13T01:36:03.195Z,99689.88
2023-01-13T01:38:29.479Z,99670.53
2023-01-13T01:40:56.130Z,99676.53
2023-01-13T01:43:42.178Z,99680.22
2023-01-13T01:46:08.446Z,99678.53
2023-01-13T01:48:41.274Z,99679.38
2023-01-13T01:51:12.707Z,99675.53
2023-01-13T01:53:39.476Z,99667.88
2023-01-13T01:56:08.302Z,99673.53
2023-01-13T01:58:51.259Z,99668.50
2023-01-13T02:01:18.711Z,99673.03
2023-01-13T02:03:53.143Z,99672.00
2023-01-13T02:06:19.470Z,99676.50
2023-01-13T02:08:46.659Z,99669.00
2023-01-13T02:11:52.489Z,99674.84
2023-01-13T02:14:21.604Z,99664.66
2023-01-13T02:17:10.565Z,99672.00
2023-01-13T02:19:55.394Z,99656.78
2023-01-13T02:23:02.922Z,99648.09
2023-01-13T02:25:50.761Z,99660.78
2023-01-13T02:29:13.577Z,99667.13
2023-01-13T02:31:44.444Z,99664.44
2023-01-13T02:34:17.298Z,99661.94
2023-01-13T02:36:52.090Z,99656.09
2023-01-13T02:39:27.791Z,99655.25
2023-01-13T02:42:30.790Z,99654.91
2023-01-13T02:45:10.927Z,99650.41
2023-01-13T02:47:39.669Z,99643.03
2023-01-13T02:50:10.488Z,99643.91
2023-01-13T02:52:44.910Z,99646.91
2023-01-13T02:55:16.790Z,99652.09
2023-01-13T02:57:44.496Z,99647.72
2023-01-13T03:00:13.104Z,99646.38
2023-01-13T03:02:39.390Z,99640.53
2023-01-13T03:05:06.423Z,99651.38
2023-01-13T03:07:44.517Z,99655.72
2023-01-13T03:10:40.776Z,99643.50
2023-01-13T03:13:16.382Z,99629.31
2023-01-13T03:16:08.431Z,99629.47
2023-01-13T03:18:50.869Z,99630.66
2023-01-13T03:21:35.139Z,99628.00
2023-01-13T03:24:04.613Z,99620.47
2023-01-13T03:26:42.514Z,99619.44
2023-01-13T03:29:24.422Z,99637.81
2023-01-13T03:32:20.319Z,99621.94
2023-01-13T03:34:57.364Z,99635.69
2023-01-13T03:37:30.748Z,99628.66
2023-01-13T03:40:07.079Z,99622.97
2023-01-13T03:42:38.088Z,99622.69
2023-01-13T03:45:17.769Z,99624.00
2023-01-13T03:47:54.074Z,99625.34
2023-01-13T03:50:24.430Z,99634.19
2023-01-13T03:52:56.552Z,99630.16
2023-01-13T03:55:28.630Z,99637.53
2023-01-13T03:58:03.694Z,99637.19
2023-01-13T04:00:36.844Z,99628.16
2023-01-13T04:03:15.104Z,99632.03
2023-01-13T04:05:47.154Z,99627.66
2023-01-13T04:08:21.518Z,99631.38
2023-01-13T04:10:57.612Z,99624.69
2023-01-13T04:13:28.705Z,99622.50
2023-01-13T04:15:55.061Z,99631.38
2023-01-13T04:18:28.358Z,99627.66
2023-01-13T04:20:56.832Z,99622.03
2023-01-13T05:55:27.331Z,99660.47
2023-01-13T05:57:53.420Z,99669.13
2023-01-13T06:00:19.928Z,99656.09
2023-01-13T06:02:46.057Z,99657.91
2023-01-13T06:05:12.150Z,99660.59
2023-01-13T06:07:38.247Z,99673.78
2023-01-13T06:10:04.718Z,99672.28
2023-01-13T06:12:30.891Z,99676.78
2023-01-13T06:14:56.971Z,99672.13
2023-01-13T06:17:23.059Z,99675.28
2023-01-13T06:19:49.195Z,99678.97
2023-01-13T06:22:17.964Z,99682.81
2023-01-13T06:24:47.160Z,99688.31
2023-01-13T06:27:13.330Z,99696.00
2023-01-13T06:29:39.414Z,99697.81
2023-01-13T06:32:13.077Z,99707.19
2023-01-13T06:34:41.112Z,99698.88
2023-01-13T06:37:07.223Z,99699.88
2023-01-13T06:39:35.947Z,99715.41
2023-01-13T06:42:21.917Z,99713.25
2023-01-13T06:44:49.159Z,99716.41
2023-01-13T06:47:15.255Z,99709.06
2023-01-13T06:49:41.343Z,99711.06
2023-01-13T06:52:07.447Z,99717.75
2023-01-13T06:54:34.700Z,99711.06
2023-01-13T06:57:02.304Z,99694.88
2023-01-13T06:59:28.663Z,99691.06
2023-01-13T07:01:54.962Z,99693.56
2023-01-13T07:04:21.274Z,99700.56
2023-01-13T07:06:47.369Z,99700.56
2023-01-13T07:09:13.464Z,99695.88
2023-01-13T07:11:39.593Z,99697.56
2023-01-13T07:14:24.071Z,99692.41
2023-01-13T07:16:52.204Z,99680.03
2023-01-13T07:19:23.317Z,99677.03
2023-01-13T07:21:51.762Z,99683.19
2023-01-13T07:24:18.243Z,99691.19
2023-01-13T07:26:44.547Z,99689.72
2023-01-13T07:29:10.954Z,99697.03
2023-01-13T07:31:37.253Z,99697.88
2023-01-13T07:34:04.192Z,99686.34
2023-01-13T07:36:30.326Z,99684.84
2023-01-13T07:38:56.869Z,99678.81
2023-01-13T07:41:41.494Z,99692.38
2023-01-13T07:44:08.318Z,99679.69
2023-01-13T07:46:34.494Z,99674.81
2023-01-13T07:49:00.592Z,99656.75
2023-01-13T07:51:26.735Z,99663.47
2023-01-13T07:53:52.849Z,99674.63
2023-01-13T07:56:19.459Z,99669.78
2023-01-13T07:58:50.385Z,99657.44
2023-01-13T08:01:17.846Z,99639.38
2023-01-13T08:03:44.716Z,99658.59
2023-01-13T08:06:11.680Z,99664.09
2023-01-13T08:08:38.693Z,99665.56
2023-01-13T08:11:07.657Z,99681.78
2023-01-13T08:13:34.399Z,99698.00
2023-01-13T08:16:04.185Z,99695.31
2023-01-13T08:18:32.154Z,99696.63
2023-01-13T08:21:02.899Z,99695.81
2023-01-13T08:23:29.101Z,99701.47
2023-01-13T08:25:55.231Z,99703.50
2023-01-13T08:28:23.965Z,99709.50
2023-01-13T08:30:50.364Z,99719.22
2023-01-13T08:33:16.651Z,99721.34
2023-01-13T08:35:42.795Z,99718.34
2023-01-13T08:38:09.261Z,99717.50
2023-01-13T08:40:35.512Z,99726.53
2023-01-13T08:43:01.797Z,99724.38
2023-01-13T08:45:27.924Z,99740.03
2023-01-13T08:47:54.080Z,99750.25
2023-01-13T08:50:20.679Z,99737.03
2023-01-13T08:52:46.941Z,99741.03
2023-01-13T08:55:13.040Z,99719.16
2023-01-13T08:57:39.161Z,99714.13
2023-01-13T09:00:07.318Z,99709.28
2023-01-13T09:02:33.916Z,99705.44
2023-01-13T09:05:04.560Z,99711.25
2023-01-13T09:07:31.502Z,99719.59
2023-01-13T09:09:57.916Z,99737.13
2023-01-13T09:12:43.161Z,99760.00
2023-01-13T09:15:10.299Z,99760.47
2023-01-13T09:17:36.417Z,99760.81
2023-01-13T09:20:02.509Z,99752.50
2023-01-13T09:22:28.602Z,99761.22
2023-01-13T09:24:55.430Z,99759.88
2023-01-13T09:27:22.432Z,99744.03
2023-01-13T09:29:48.809Z,99744.41
2023-01-13T09:32:15.230Z,99705.94
2023-01-13T09:35:00.105Z,99656.38
2023-01-13T09:37:28.143Z,99616.78
2023-01-13T09:39:54.447Z,99671.91
2023-01-13T09:42:50.111Z,99652.38
2023-01-13T09:45:22.666Z,99693.44
2023-01-13T09:48:17.116Z,99715.34
2023-01-13T09:50:54.365Z,99693.31
2023-01-13T09:53:26.217Z,99700.13
2023-01-13T09:55:53.058Z,99717.19
2023-01-13T09:58:19.833Z,99709.19
2023-01-13T10:00:50.633Z,99716.53
2023-01-13T10:03:28.154Z,99709.50
2023-01-13T10:06:00.038Z,99702.84
2023-01-13T10:08:29.874Z,99710.34
2023-01-13T10:10:59.189Z,99712.38
2023-01-13T10:13:31.254Z,99701.84
2023-01-13T10:16:05.391Z,99707.03
2023-01-13T10:19:03.539Z,99714.91
2023-01-13T10:21:57.838Z,99709.91
2023-01-13T10:24:53.612Z,99709.56
2023-01-13T10:27:41.892Z,99710.25
2023-01-13T10:30:31.291Z,99714.72
2023-01-13T10:32:59.800Z,99714.88
2023-01-13T10:36:01.080Z,99717.19
2023-01-13T10:38:39.362Z,99722.19
2023-01-13T10:41:18.119Z,99728.03
2023-01-13T10:44:08.448Z,99730.38
2023-01-13T10:46:52.890Z,99721.22
2023-01-13T10:49:36.485Z,99722.25
2023-01-13T10:52:04.575Z,99719.28
2023-01-13T10:54:31.154Z,99723.59
2023-01-13T10:57:13.963Z,99725.28
2023-01-13T10:59:40.095Z,99725.25
2023-01-13T11:02:24.291Z,99706.41
2023-01-13T11:04:53.954Z,99715.59
2023-01-13T11:07:30.452Z,99719.91
2023-01-13T11:10:21.190Z,99719.09
2023-01-13T11:12:58.566Z,99724.06
2023-01-13T11:15:53.966Z,99716.53
2023-01-13T11:19:02.267Z,99724.53
2023-01-13T11:21:49.790Z,99727.69
2023-01-13T11:24:24.050Z,99733.41
2023-01-13T11:27:00.614Z,99731.34
2023-01-13T11:29:49.361Z,99726.50
2023-01-13T11:32:19.993Z,99724.38
2023-01-13T11:34:52.663Z,99728.53
2023-01-13T11:37:27.560Z,99723.81
2023-01-13T11:40:18.789Z,99720.38
2023-01-13T11:43:18.000Z,99714.66
2023-01-13T11:45:49.355Z,99719.16
2023-01-13T11:48:19.763Z,99722.19
2023-01-13T11:51:00.796Z,99721.31
2023-01-13T11:54:04.627Z,99717.78
2023-01-13T11:57:03.925Z,99712.22
2023-01-13T11:59:58.822Z,99704.91
2023-01-13T12:02:27.915Z,99712.31
2023-01-13T12:05:31.491Z,99702.38
2023-01-13T12:08:18.243Z,99707.75
2023-01-13T12:11:10.941Z,99716.47
2023-01-13T12:14:02.960Z,99724.03
2023-01-13T12:16:30.877Z,99717.00
2023-01-13T12:19:10.476Z,99727.03
2023-01-13T12:21:56.975Z,99718.78
2023-01-13T12:24:30.072Z,99711.53
2023-01-13T12:27:01.047Z,99710.84
2023-01-13T12:29:36.291Z,99706.56
2023-01-13T12:32:06.815Z,99714.09
2023-01-13T12:34:44.913Z,99715.91
2023-01-13T12:37:44.959Z,99714.34
2023-01-13T12:40:47.030Z,99709.81
2023-01-13T12:43:38.423Z,99727.75
2023-01-13T12:46:19.646Z,99726.78
2023-01-13T12:48:56.724Z,99733.59
2023-01-13T12:51:27.927Z,99731.47
2023-01-13T12:53:55.518Z,99742.16
2023-01-13T12:56:27.368Z,99729.78
2023-01-13T12:59:21.559Z,99730.63
2023-01-13T13:01:49.855Z,99741.50
2023-01-13T13:04:38.514Z,99741.84
2023-01-13T13:07:14.732Z,99745.53
2023-01-13T13:09:45.781Z,99735.13
2023-01-13T13:13:00.440Z,99748.09
2023-01-13T13:15:36.397Z,99744.44
2023-01-13T13:18:18.839Z,99734.91
2023-01-13T13:21:04.635Z,99750.47
2023-01-13T13:23:35.465Z,99744.66
2023-01-13T13:26:07.307Z,99750.03
2023-01-13T13:28:41.219Z,99750.97
2023-01-13T13:31:32.012Z,99749.66
2023-01-13T13:34:16.433Z,99740.19
2023-01-13T13:37:07.685Z,99752.09
2023-01-13T13:40:00.938Z,99757.81
2023-01-13T13:42:47.504Z,99752.31
2023-01-13T13:45:40.298Z,99770.34
2023-01-13T13:48:25.282Z,99774.31
2023-01-13T13:50:59.256Z,99779.66
2023-01-13T13:53:32.965Z,99776.34
2023-01-13T13:56:01.953Z,99779.34
2023-01-13T13:58:31.389Z,99775.16
2023-01-13T14:00:58.388Z,99770.78
2023-01-13T14:03:38.363Z,99777.94
2023-01-13T14:06:07.640Z,99776.47
2023-01-13T14:08:36.798Z,99770.13
2023-01-13T14:11:25.275Z,99783.66
2023-01-13T14:14:01.985Z,99783.03
2023-01-13T14:16:28.102Z,99785.88
2023-01-13T14:18:54.790Z,99793.75
2023-01-13T14:21:30.801Z,99787.22
2023-01-13T14:24:21.187Z,99785.69
2023-01-13T14:26:51.983Z,99793.22
2023-01-13T14:29:22.753Z,99780.03
2023-01-13T14:31:51.245Z,99785.53
2023-01-13T14:34:32.527Z,99792.84
2023-01-13T14:37:00.610Z,99793.00
2023-01-13T14:39:37.556Z,99804.66
2023-01-13T14:42:04.800Z,99800.34
2023-01-13T14:44:36.486Z,99802.66
2023-01-13T14:47:18.046Z,99796.00
2023-01-13T14:50:02.541Z,99801.53
2023-01-13T14:52:31.660Z,99797.19
2023-01-13T14:55:06.936Z,99804.03
2023-01-13T14:57:36.348Z,99801.53
2023-01-13T15:00:14.438Z,99807.19
2023-01-13T15:02:53.496Z,99800.38
2023-01-13T15:05:19.610Z,99800.22
2023-01-13T15:07:49.801Z,99792.69
2023-01-13T15:10:22.443Z,99800.03
2023-01-13T15:12:51.656Z,99795.22
2023-01-13T15:15:23.832Z,99802.88
2023-01-13T15:17:50.171Z,99803.19
2023-01-13T15:20:19.209Z,99810.38
2023-01-13T15:22:45.954Z,99802.72
2023-01-13T15:25:12.117Z,99814.53
2023-01-13T15:27:38.580Z,99813.03
2023-01-13T15:30:14.886Z,99811.03
2023-01-13T15:32:41.321Z,99818.22
2023-01-13T15:35:08.671Z,99817.69
2023-01-13T15:37:36.011Z,99814.06
2023-01-13T15:40:02.160Z,99820.19
2023-01-13T15:42:47.086Z,99821.34
2023-01-13T15:45:31.806Z,99815.47
2023-01-13T15:47:59.666Z,99819.84
2023-01-13T15:50:26.549Z,99820.38
2023-01-13T15:52:52.653Z,99824.94
2023-01-13T15:55:18.847Z,99815.81
2023-01-13T15:57:49.763Z,99829.63
2023-01-13T16:00:20.227Z,99826.78
2023-01-13T16:02:46.603Z,99826.94
2023-01-13T16:05:12.837Z,99828.94
2023-01-13T16:07:39.095Z,99831.28
2023-01-13T16:10:08.492Z,99830.25
2023-01-13T16:12:34.592Z,99836.78
2023-01-13T16:15:00.709Z,99845.56
2023-01-13T16:17:30.342Z,99834.06
2023-01-13T16:19:56.466Z,99839.41
2023-01-13T16:22:22.592Z,99840.38
2023-01-13T16:24:48.703Z,99848.25
2023-01-13T16:27:22.344Z,99847.88
2023-01-13T16:29:49.740Z,99856.09
2023-01-13T16:32:15.885Z,99857.94
2023-01-13T16:34:42.448Z,99854.75
2023-01-13T16:37:21.179Z,99857.72
2023-01-13T16:39:47.923Z,99853.06
2023-01-13T16:42:14.688Z,99864.53
2023-01-13T16:44:40.957Z,99862.88
2023-01-13T16:47:17.143Z,99866.38
2023-01-13T16:49:44.259Z,99874.56
2023-01-13T16:52:10.597Z,99877.56
2023-01-13T16:54:37.040Z,99880.91
2023-01-13T16:57:03.273Z,99884.03
2023-01-13T16:59:29.369Z,99888.00
2023-01-13T17:01:55.534Z,99902.22
2023-01-13T17:04:23.586Z,99898.69
2023-01-13T17:07:06.038Z,99892.53
2023-01-13T17:09:32.342Z,99906.50
2023-01-13T17:11:58.451Z,99906.50
2023-01-13T17:14:25.056Z,99901.78
2023-01-13T17:16:54.768Z,99908.97
2023-01-13T17:19:22.055Z,99905.59
2023-01-13T17:21:48.172Z,99911.78
2023-01-13T17:24:14.314Z,99916.25
2023-01-13T17:26:47.617Z,99919.09
2023-01-13T17:29:16.863Z,99931.75
2023-01-13T17:31:43.341Z,99919.41
2023-01-13T17:34:12.201Z,99927.03
2023-01-13T17:36:38.298Z,99927.03
2023-01-13T17:39:04.666Z,99927.13
2023-01-13T17:41:30.911Z,99927.44
2023-01-13T17:43:57.005Z,99931.41
2023-01-13T17:46:23.323Z,99930.88
2023-01-13T17:48:51.205Z,99933.69
2023-01-13T17:51:18.583Z,99940.63
2023-01-13T17:53:45.649Z,99938.28
2023-01-13T17:56:13.510Z,99948.19
2023-01-13T17:58:41.653Z,99949.09
2023-01-13T18:01:13.892Z,99940.34
2023-01-13T18:03:40.125Z,99935.16
2023-01-13T18:06:08.584Z,99952.44
2023-01-13T18:08:34.795Z,99952.25
2023-01-13T18:11:02.859Z,99954.94
2023-01-13T18:13:31.385Z,99955.09
2023-01-13T18:16:04.584Z,99968.41
2023-01-13T18:18:30.686Z,99974.03
2023-01-13T18:21:15.271Z,99964.13
2023-01-13T18:23:59.871Z,99967.53
2023-01-13T18:26:44.369Z,99964.78
2023-01-13T18:29:10.499Z,99966.13
2023-01-13T18:31:36.643Z,99982.09
2023-01-13T18:34:02.732Z,99981.69
2023-01-13T18:36:28.839Z,99991.06
2023-01-13T18:38:55.640Z,99993.97
2023-01-13T18:41:40.745Z,100006.28
2023-01-13T18:44:06.899Z,100005.69
2023-01-13T18:46:33.077Z,99996.97
2023-01-13T18:48:59.971Z,100000.63
2023-01-13T18:51:26.062Z,100004.53
2023-01-13T18:53:52.234Z,100005.59
2023-01-13T18:56:18.347Z,100012.63
2023-01-13T18:58:51.532Z,100007.22
2023-01-13T19:01:25.721Z,100001.22
2023-01-13T19:03:56.703Z,100012.63
2023-01-13T19:06:25.787Z,100014.34
2023-01-13T19:08:53.471Z,100011.91
2023-01-13T19:11:21.813Z,100019.19
2023-01-13T19:13:48.719Z,100027.59
2023-01-13T19:16:15.515Z,100021.56
2023-01-13T19:18:41.712Z,100033.91
2023-01-13T19:21:08.316Z,100035.28
2023-01-13T19:23:34.883Z,100032.59
2023-01-13T19:26:02.799Z,100034.59
2023-01-13T19:28:29.203Z,100042.84
2023-01-13T19:31:00.464Z,100041.00
2023-01-13T19:33:29.207Z,100041.69
2023-01-13T19:35:55.861Z,100043.38
2023-01-13T19:38:22.958Z,100039.84
2023-01-13T19:40:54.576Z,100045.56
2023-01-13T19:43:39.511Z,100050.75
2023-01-13T19:46:05.790Z,100051.59
2023-01-13T19:48:31.903Z,100056.94
2023-01-13T19:50:59.482Z,100053.97
2023-01-13T19:53:25.689Z,100074.44
2023-01-13T19:55:51.858Z,100073.47
2023-01-13T19:58:19.840Z,100070.78
2023-01-13T20:00:49.755Z,100060.28
2023-01-13T20:03:17.637Z,100060.13
2023-01-13T20:05:43.726Z,100074.56
2023-01-13T20:08:10.530Z,100065.00
2023-01-13T20:10:37.693Z,100076.66
2023-01-13T20:13:04.804Z,100081.31
2023-01-13T20:15:31.602Z,100065.31
2023-01-13T20:17:58.135Z,100081.47
2023-01-13T20:20:27.470Z,100077.09
2023-01-13T20:22:53.628Z,100071.34
2023-01-13T20:25:19.939Z,100083.97
2023-01-13T20:27:47.352Z,100074.97
2023-01-13T20:30:14.497Z,100091.28
2023-01-13T20:32:41.964Z,100090.84
2023-01-13T20:35:08.754Z,100090.84
2023-01-13T20:37:37.550Z,100098.81
2023-01-13T20:40:05.469Z,100098.97
2023-01-13T20:42:32.928Z,100096.16
2023-01-13T20:45:00.519Z,100100.81
2023-01-13T20:47:28.566Z,100106.81
2023-01-13T20:49:54.700Z,100103.47
2023-01-13T20:52:20.850Z,100110.25
2023-01-13T20:54:46.983Z,100110.09
2023-01-13T20:57:13.169Z,100111.06
2023-01-13T20:59:39.906Z,100114.75
2023-01-13T21:02:10.731Z,100111.06
2023-01-13T21:04:36.835Z,100116.53
2023-01-13T21:07:02.953Z,100108.41
2023-01-13T21:09:29.334Z,100116.53
2023-01-13T21:12:13.852Z,100113.03
2023-01-13T21:14:58.363Z,100107.72
2023-01-13T21:17:43.691Z,100119.53
2023-01-13T21:20:11.821Z,100116.41
2023-01-13T21:22:39.021Z,100110.78
2023-01-13T21:25:06.434Z,100122.41
2023-01-13T21:27:33.051Z,100124.53
2023-01-13T21:29:59.156Z,100118.22
2023-01-13T21:32:25.291Z,100123.41
2023-01-13T21:34:51.431Z,100125.41
2023-01-13T21:37:18.634Z,100131.41
2023-01-13T21:39:44.923Z,100119.38
2023-01-13T21:42:33.483Z,100139.16
2023-01-13T21:45:18.420Z,100137.50
2023-01-13T21:47:50.525Z,100144.19
2023-01-13T21:50:19.987Z,100146.56
2023-01-13T21:52:47.257Z,100128.75
2023-01-13T21:55:20.028Z,100139.41
2023-01-13T21:57:47.723Z,100151.19
2023-01-13T22:00:14.956Z,100145.03
2023-01-13T22:02:41.263Z,100147.56
2023-01-13T22:05:09.291Z,100157.06
2023-01-13T22:07:36.407Z,100154.31
2023-01-13T22:10:03.614Z,100153.06
2023-01-13T22:12:30.133Z,100172.19
2023-01-13T22:14:56.475Z,100169.78
2023-01-13T22:17:25.741Z,100173.28
2023-01-13T22:19:53.948Z,100168.97
2023-01-13T22:22:21.849Z,100177.78
2023-01-13T22:24:49.711Z,100181.16
2023-01-13T22:27:19.109Z,100172.31
2023-01-13T22:29:46.239Z,100174.84
2023-01-13T22:32:12.507Z,100193.66
2023-01-13T22:34:38.851Z,100185.09
2023-01-13T22:37:05.212Z,100187.75
2023-01-13T22:39:31.652Z,100185.09
2023-01-13T22:41:57.757Z,100188.59
2023-01-13T22:44:24.115Z,100196.75
2023-01-13T22:46:50.455Z,100190.88
2023-01-13T22:49:17.488Z,100199.00
2023-01-13T22:51:43.883Z,100204.19
2023-01-13T22:54:10.454Z,100202.38
2023-01-13T22:56:36.904Z,100215.97
2023-01-13T22:59:04.918Z,100206.31
2023-01-13T23:01:33.608Z,100215.28
2023-01-13T23:04:00.490Z,100222.56
2023-01-13T23:06:28.079Z,100225.53
2023-01-13T23:08:55.086Z,100215.72
2023-01-13T23:11:24.051Z,100223.84
2023-01-13T23:13:56.538Z,100217.09
2023-01-13T23:16:22.707Z,100214.75
2023-01-13T23:18:49.305Z,100222.56
2023-01-13T23:21:24.413Z,100224.84
2023-01-13T23:23:50.796Z,100228.47
2023-01-13T23:26:18.005Z,100231.84
2023-01-13T23:28:44.325Z,100233.41
2023-01-13T23:31:13.428Z,100232.16
2023-01-13T23:33:41.472Z,100240.88
2023-01-13T23:36:09.289Z,100237.91
2023-01-13T23:38:35.439Z,100238.59
2023-01-13T23:41:05.917Z,100237.75
2023-01-13T23:43:32.022Z,100245.63
2023-01-13T23:46:05.929Z,100243.22
2023-01-13T23:48:33.130Z,100246.47
2023-01-13T23:51:01.627Z,100238.75
2023-01-13T23:53:33.475Z,100241.16
2023-01-13T23:56:00.896Z,100250.13
2023-01-13T23:58:28.332Z,100254.03
